Time;durP1;ratioP1;P1;durP2;ratioP2;P2;SDS_P1;SDS_P2;PMS_P1;PMS_P2;Temp;Humidity;BMP_temperature;BMP_pressure;BME280_temperature;BME280_humidity;BME280_pressure;Samples;Min_cycle;Max_cycle;Signal;HPM_P1;HPM_P2
2022/07/30 00:00:06;;;;;;;11.20;10.20;;;;;;;18.31;100.00;98747.15;104966;1272;63035;-69
2022/07/30 00:02:52;;;;;;;12.40;11.30;;;;;;;18.28;100.00;98747.27;104955;1271;75297;-70
2022/07/30 00:05:18;;;;;;;12.20;11.10;;;;;;;18.27;100.00;98743.39;104974;1271;62155;-68
2022/07/30 00:07:44;;;;;;;10.70;9.60;;;;;;;18.26;100.00;98738.63;105115;1271;62164;-69
2022/07/30 00:10:10;;;;;;;10.20;9.20;;;;;;;18.25;100.00;98738.12;105221;1271;62097;-69
2022/07/30 00:12:36;;;;;;;9.70;8.80;;;;;;;18.23;100.00;98738.61;105220;1271;62184;-70
2022/07/30 00:15:02;;;;;;;10.30;8.80;;;;;;;18.21;100.00;98737.51;105218;1271;62194;-69
2022/07/30 00:17:28;;;;;;;9.20;8.30;;;;;;;18.21;100.00;98741.19;105054;1271;62887;-68
2022/07/30 00:19:54;;;;;;;9.70;8.80;;;;;;;18.20;100.00;98745.95;105219;1271;62162;-69
2022/07/30 00:22:19;;;;;;;8.50;7.70;;;;;;;18.20;100.00;98750.42;105222;1271;69452;-68
2022/07/30 00:24:45;;;;;;;8.40;7.60;;;;;;;18.20;100.00;98754.17;105200;1271;62625;-69
2022/07/30 00:27:13;;;;;;;8.70;7.80;;;;;;;18.20;100.00;98754.71;105209;1271;62157;-69
2022/07/30 00:29:39;;;;;;;10.20;9.30;;;;;;;18.21;100.00;98756.29;105226;1271;62521;-69
2022/07/30 00:32:05;;;;;;;8.90;7.80;;;;;;;18.20;100.00;98756.76;105222;1271;62190;-68
2022/07/30 00:34:31;;;;;;;8.50;7.70;;;;;;;18.20;100.00;98754.58;105218;1270;62393;-68
2022/07/30 00:36:57;;;;;;;8.40;7.60;;;;;;;18.20;100.00;98748.45;105187;1271;62155;-69
2022/07/30 00:39:23;;;;;;;9.30;8.40;;;;;;;18.18;100.00;98748.95;105184;1271;62373;-69
2022/07/30 00:41:58;;;;;;;9.50;8.60;;;;;;;18.18;100.00;98741.27;105200;1271;62161;-69
2022/07/30 00:44:24;;;;;;;11.20;8.80;;;;;;;18.18;100.00;98735.58;105215;1271;77166;-69
2022/07/30 00:46:50;;;;;;;11.60;9.90;;;;;;;18.17;100.00;98734.36;105210;1271;62187;-69
2022/07/30 00:49:16;;;;;;;10.30;9.30;;;;;;;18.17;100.00;98723.05;105171;1270;62209;-69
2022/07/30 00:51:42;;;;;;;9.90;9.10;;;;;;;18.15;100.00;98717.10;105164;1271;62139;-69
2022/07/30 00:54:08;;;;;;;9.70;8.80;;;;;;;18.14;100.00;98708.96;105143;1270;62175;-69
2022/07/30 00:56:34;;;;;;;10.60;9.50;;;;;;;18.13;100.00;98699.69;105155;1271;62133;-69
2022/07/30 00:59:00;;;;;;;11.10;9.90;;;;;;;18.14;100.00;98693.50;105187;1271;62202;-69
2022/07/30 01:01:25;;;;;;;9.60;8.70;;;;;;;18.13;100.00;98691.77;105198;1271;62137;-70
2022/07/30 01:03:51;;;;;;;10.00;9.10;;;;;;;18.12;100.00;98697.27;105237;1271;62181;-69
2022/07/30 01:06:17;;;;;;;12.30;10.20;;;;;;;18.13;100.00;98695.81;105214;1271;62103;-69
2022/07/30 01:08:43;;;;;;;10.50;9.50;;;;;;;18.12;100.00;98684.71;105255;1270;62158;-68
2022/07/30 01:11:10;;;;;;;10.90;10.00;;;;;;;18.12;100.00;98680.58;105212;1270;62216;-69
2022/07/30 01:13:37;;;;;;;10.70;9.60;;;;;;;18.12;100.00;98673.03;105226;1271;62117;-68
2022/07/30 01:16:03;;;;;;;11.00;9.80;;;;;;;18.11;100.00;98667.21;105044;1271;62151;-69
2022/07/30 01:21:22;;;;;;;11.20;10.10;;;;;;;18.10;100.00;98659.42;104965;1271;70674;-70
2022/07/30 01:23:52;;;;;;;10.80;9.90;;;;;;;18.10;100.00;98659.05;105194;1271;72824;-68
2022/07/30 01:26:21;;;;;;;10.80;9.70;;;;;;;18.10;100.00;98664.41;105136;1270;62586;-68
2022/07/30 01:28:53;;;;;;;12.10;11.00;;;;;;;18.09;100.00;98664.84;105255;1271;62080;-68
2022/07/30 01:31:20;;;;;;;12.40;11.30;;;;;;;18.07;100.00;98660.99;105077;1271;75083;-68
2022/07/30 01:33:48;;;;;;;13.70;12.40;;;;;;;18.07;100.00;98654.38;105272;1271;68649;-68
2022/07/30 01:36:17;;;;;;;14.60;13.10;;;;;;;18.07;100.00;98653.08;105245;1271;73609;-68
2022/07/30 01:38:45;;;;;;;17.20;15.50;;;;;;;18.06;100.00;98655.14;105234;1271;62084;-69
2022/07/30 01:41:12;;;;;;;15.90;14.40;;;;;;;18.04;100.00;98655.14;105281;1271;62139;-69
2022/07/30 01:43:40;;;;;;;17.60;15.90;;;;;;;18.03;100.00;98651.49;105275;1270;75900;-67
2022/07/30 01:46:08;;;;;;;17.50;15.70;;;;;;;18.03;100.00;98649.56;105267;1271;70155;-68
2022/07/30 01:48:39;;;;;;;18.60;16.80;;;;;;;18.02;100.00;98641.04;105336;1271;72782;-68
2022/07/30 01:51:06;;;;;;;17.90;16.10;;;;;;;18.02;100.00;98637.30;104922;1271;62176;-68
2022/07/30 01:53:36;;;;;;;17.50;15.90;;;;;;;18.01;100.00;98633.40;105259;1271;62207;-69
2022/07/30 01:56:04;;;;;;;18.20;16.40;;;;;;;18.00;100.00;98637.91;105221;1271;76525;-68
2022/07/30 01:58:36;;;;;;;17.80;16.20;;;;;;;18.00;100.00;98640.48;105298;1270;70386;-68
2022/07/30 02:01:02;;;;;;;18.10;16.40;;;;;;;17.99;100.00;98640.34;105247;1271;73583;-68
2022/07/30 02:03:28;;;;;;;18.40;16.60;;;;;;;18.00;100.00;98641.92;105188;1271;62114;-68
2022/07/30 02:06:21;;;;;;;18.20;16.60;;;;;;;17.99;100.00;98640.59;105189;1271;62164;-68
2022/07/30 02:09:00;;;;;;;17.70;16.00;;;;;;;17.97;100.00;98636.82;105140;1271;76311;-69
2022/07/30 02:14:18;;;;;;;21.30;19.10;;;;;;;17.97;100.00;98645.21;105071;1271;72827;-68
2022/07/30 02:16:49;;;;;;;22.40;20.30;;;;;;;17.97;100.00;98645.56;105303;1271;62052;-68
2022/07/30 02:19:17;;;;;;;32.00;29.20;;;;;;;17.97;100.00;98646.56;105309;1271;62916;-69
2022/07/30 02:21:46;;;;;;;27.40;24.90;;;;;;;17.96;100.00;98641.54;105190;1271;76988;-69
2022/07/30 02:24:16;;;;;;;20.90;18.90;;;;;;;17.95;100.00;98640.05;105186;1271;69363;-69
2022/07/30 02:26:45;;;;;;;19.50;17.60;;;;;;;17.95;100.00;98642.80;105240;1270;71654;-69
2022/07/30 02:29:15;;;;;;;19.70;17.70;;;;;;;17.93;100.00;98641.01;105072;1272;62290;-69
2022/07/30 02:31:41;;;;;;;17.90;16.20;;;;;;;17.92;100.00;98641.06;105017;1271;62057;-69
2022/07/30 02:34:10;;;;;;;19.00;17.00;;;;;;;17.92;100.00;98635.58;105113;1271;62147;-69
2022/07/30 02:36:38;;;;;;;19.90;17.40;;;;;;;17.91;100.00;98635.60;104875;1271;70334;-69
2022/07/30 02:39:04;;;;;;;18.40;16.60;;;;;;;17.91;100.00;98638.67;105255;1271;74454;-69
2022/07/30 02:41:31;;;;;;;18.60;16.60;;;;;;;17.91;100.00;98633.45;104919;1271;62229;-69
2022/07/30 02:43:59;;;;;;;18.00;16.20;;;;;;;17.92;100.00;98639.14;105288;1271;62075;-69
2022/07/30 02:46:26;;;;;;;19.60;17.30;;;;;;;17.92;100.00;98637.52;105220;1271;77043;-68
2022/07/30 02:48:54;;;;;;;18.20;16.40;;;;;;;17.92;100.00;98635.20;105335;1271;69371;-70
2022/07/30 02:51:21;;;;;;;20.60;18.50;;;;;;;17.92;100.00;98636.83;105220;1271;73500;-68
2022/07/30 02:53:50;;;;;;;21.40;18.70;;;;;;;17.92;100.00;98635.40;105268;1271;62008;-70
2022/07/30 02:56:18;;;;;;;21.40;19.30;;;;;;;17.92;100.00;98632.67;105177;1271;62026;-69
2022/07/30 02:58:45;;;;;;;19.00;17.30;;;;;;;17.92;100.00;98633.92;105163;1271;77246;-69
2022/07/30 03:01:15;;;;;;;21.20;18.90;;;;;;;17.91;100.00;98633.65;105268;1271;69295;-69
2022/07/30 03:03:45;;;;;;;20.40;18.40;;;;;;;17.90;100.00;98631.58;105330;1271;72874;-69
2022/07/30 03:06:13;;;;;;;20.70;18.50;;;;;;;17.90;100.00;98630.57;105213;1271;61994;-68
2022/07/30 03:08:43;;;;;;;19.90;17.90;;;;;;;17.89;100.00;98630.98;105199;1271;62002;-69
2022/07/30 03:11:10;;;;;;;20.40;18.50;;;;;;;17.89;100.00;98625.98;105289;1271;74430;-69
2022/07/30 03:13:37;;;;;;;20.60;18.60;;;;;;;17.88;100.00;98622.08;105265;1271;70204;-69
2022/07/30 03:16:07;;;;;;;19.70;17.80;;;;;;;17.89;100.00;98620.73;105182;1271;73294;-69
2022/07/30 03:18:36;;;;;;;19.80;18.00;;;;;;;17.90;100.00;98619.59;105267;1271;62438;-69
2022/07/30 03:21:05;;;;;;;19.60;17.80;;;;;;;17.88;100.00;98623.24;105209;1270;62056;-69
2022/07/30 03:23:35;;;;;;;20.40;17.50;;;;;;;17.89;100.00;98622.92;105181;1271;76063;-69
2022/07/30 03:26:03;;;;;;;20.40;18.60;;;;;;;17.87;100.00;98620.92;105021;1271;70649;-69
2022/07/30 03:28:31;;;;;;;19.60;17.60;;;;;;;17.88;100.00;98624.88;105209;1269;74396;-69
2022/07/30 03:30:58;;;;;;;19.70;17.90;;;;;;;17.88;100.00;98625.88;105198;1271;62104;-69
2022/07/30 03:33:25;;;;;;;19.40;17.40;;;;;;;17.89;100.00;98629.36;105177;1271;62105;-69
2022/07/30 03:35:51;;;;;;;19.60;17.60;;;;;;;17.90;100.00;98629.63;104918;1271;77072;-68
2022/07/30 03:38:18;;;;;;;19.90;18.00;;;;;;;17.90;100.00;98629.45;105171;1271;62077;-69
2022/07/30 03:40:45;;;;;;;18.80;17.00;;;;;;;17.89;100.00;98629.02;104982;1271;73280;-69
2022/07/30 03:43:13;;;;;;;18.10;16.20;;;;;;;17.89;100.00;98633.50;104827;1271;62370;-68
2022/07/30 03:45:41;;;;;;;18.50;16.90;;;;;;;17.88;100.00;98639.00;104943;1271;62141;-68
2022/07/30 03:48:09;;;;;;;19.50;17.60;;;;;;;17.87;100.00;98643.41;105160;1271;76052;-68
2022/07/30 03:50:36;;;;;;;18.80;16.90;;;;;;;17.88;100.00;98641.35;105338;1269;69360;-70
2022/07/30 03:53:04;;;;;;;18.00;16.30;;;;;;;17.90;100.00;98640.63;105338;1271;74335;-69
2022/07/30 03:55:31;;;;;;;18.40;16.40;;;;;;;17.93;100.00;98644.23;104931;1271;62234;-69
2022/07/30 03:58:00;;;;;;;20.20;18.20;;;;;;;17.97;100.00;98640.06;105320;1271;62183;-69
2022/07/30 04:00:27;;;;;;;20.10;18.20;;;;;;;18.03;100.00;98637.47;105157;1271;76074;-68
2022/07/30 04:02:53;;;;;;;21.20;19.20;;;;;;;18.09;100.00;98636.33;105209;1271;69245;-69
2022/07/30 04:05:20;;;;;;;21.70;19.60;;;;;;;18.15;100.00;98642.73;105182;1271;62196;-69
2022/07/30 04:07:46;;;;;;;24.70;22.30;;;;;;;18.19;100.00;98645.72;105250;1271;62092;-69
2022/07/30 04:10:13;;;;;;;26.10;23.50;;;;;;;18.21;100.00;98649.77;105212;1270;62197;-69
2022/07/30 04:12:39;;;;;;;27.50;24.70;;;;;;;18.25;100.00;98648.20;105237;1271;76080;-69
2022/07/30 04:15:06;;;;;;;32.20;29.00;;;;;;;18.27;100.00;98651.30;104991;1271;62228;-69
2022/07/30 04:17:42;;;;;;;37.80;34.10;;;;;;;18.29;100.00;98650.55;105311;1271;74189;-73
2022/07/30 04:20:30;;;;;;;38.10;34.30;;;;;;;18.30;100.00;98653.17;105246;1271;62043;-70
2022/07/30 04:22:57;;;;;;;37.80;34.00;;;;;;;18.35;100.00;98656.44;105277;1271;62196;-69
2022/07/30 04:25:24;;;;;;;41.50;37.50;;;;;;;18.40;100.00;98659.80;105240;1271;76265;-69
2022/07/30 04:27:50;;;;;;;46.40;41.60;;;;;;;18.47;100.00;98655.68;105302;1271;69591;-69
2022/07/30 04:30:16;;;;;;;43.50;39.30;;;;;;;18.54;100.00;98651.63;105241;1271;62158;-69
2022/07/30 04:32:43;;;;;;;44.80;40.40;;;;;;;18.60;100.00;98654.46;105245;1271;62104;-69
2022/07/30 04:35:09;;;;;;;44.80;40.30;;;;;;;18.69;100.00;98651.56;105215;1271;62165;-69
2022/07/30 04:37:35;;;;;;;43.70;39.60;;;;;;;18.76;100.00;98650.55;105190;1271;62103;-69
2022/07/30 04:40:01;;;;;;;41.60;37.40;;;;;;;18.80;100.00;98649.50;105216;1271;62181;-68
2022/07/30 04:42:28;;;;;;;43.20;38.80;;;;;;;18.86;100.00;98655.17;105192;1270;62107;-68
2022/07/30 04:44:54;;;;;;;43.40;39.20;;;;;;;18.90;100.00;98652.27;105239;1271;62181;-69
2022/07/30 04:47:21;;;;;;;41.70;37.50;;;;;;;18.91;100.00;98653.67;104912;1271;62091;-68
2022/07/30 04:49:49;;;;;;;42.70;38.50;;;;;;;18.92;100.00;98654.44;105187;1271;62100;-70
2022/07/30 04:52:17;;;;;;;38.70;35.10;;;;;;;18.92;100.00;98662.67;105331;1269;69219;-69
2022/07/30 04:54:50;;;;;;;36.10;32.50;;;;;;;18.92;100.00;98659.48;105205;1271;74692;-68
2022/07/30 04:57:18;;;;;;;33.60;30.30;;;;;;;18.92;100.00;98661.63;104936;1271;61972;-67
2022/07/30 04:59:44;;;;;;;30.60;27.80;;;;;;;18.90;100.00;98660.43;105206;1271;62065;-69
2022/07/30 05:02:13;;;;;;;30.50;27.50;;;;;;;18.88;100.00;98655.04;105211;1271;62001;-70
2022/07/30 05:04:40;;;;;;;30.00;27.10;;;;;;;18.85;100.00;98652.26;105263;1271;69278;-70
2022/07/30 05:07:07;;;;;;;28.30;25.60;;;;;;;18.82;100.00;98654.88;105212;1271;73089;-69
2022/07/30 05:09:33;;;;;;;27.70;25.20;;;;;;;18.82;100.00;98655.96;105241;1271;62107;-69
2022/07/30 05:11:59;;;;;;;26.40;23.70;;;;;;;18.84;100.00;98660.50;105257;1271;62095;-68
2022/07/30 05:14:26;;;;;;;25.10;22.80;;;;;;;18.85;100.00;98659.82;105202;1271;62167;-69
2022/07/30 05:16:53;;;;;;;25.20;22.80;;;;;;;18.86;100.00;98664.92;105196;1271;62176;-69
2022/07/30 05:19:19;;;;;;;24.70;22.10;;;;;;;18.86;100.00;98665.50;105272;1271;62075;-70
2022/07/30 05:21:45;;;;;;;22.90;20.70;;;;;;;18.87;100.00;98665.19;105201;1270;62183;-69
2022/07/30 05:24:12;;;;;;;23.50;21.00;;;;;;;18.89;100.00;98664.62;105206;1271;62280;-69
2022/07/30 05:26:38;;;;;;;21.90;19.90;;;;;;;18.91;100.00;98661.42;105197;1271;62089;-69
2022/07/30 05:29:04;;;;;;;21.90;19.80;;;;;;;18.93;100.00;98661.36;105236;1270;62116;-69
2022/07/30 05:31:30;;;;;;;21.10;19.10;;;;;;;18.96;100.00;98664.55;104870;1271;62318;-69
2022/07/30 05:33:56;;;;;;;19.70;17.80;;;;;;;19.01;100.00;98666.93;105188;1270;62263;-69
2022/07/30 05:36:22;;;;;;;19.70;17.80;;;;;;;19.05;100.00;98666.88;105198;1271;62188;-69
2022/07/30 05:38:48;;;;;;;18.50;16.60;;;;;;;19.08;100.00;98664.03;105245;1271;62132;-69
2022/07/30 05:41:15;;;;;;;19.70;17.80;;;;;;;19.11;100.00;98663.54;105170;1271;73555;-69
2022/07/30 05:43:41;;;;;;;20.90;18.90;;;;;;;19.12;100.00;98653.18;104932;1271;62155;-69
2022/07/30 05:46:07;;;;;;;20.50;18.30;;;;;;;19.13;100.00;98648.95;104865;1271;62350;-70
2022/07/30 05:48:34;;;;;;;20.30;18.30;;;;;;;19.14;100.00;98652.44;105020;1269;62168;-70
2022/07/30 05:51:01;;;;;;;18.70;16.90;;;;;;;19.12;100.00;98650.95;105208;1271;68512;-69
2022/07/30 05:53:27;;;;;;;19.80;18.00;;;;;;;19.14;100.00;98648.32;105191;1271;74192;-69
2022/07/30 05:55:53;;;;;;;19.50;17.70;;;;;;;19.17;100.00;98650.45;105193;1271;62145;-69
2022/07/30 05:58:19;;;;;;;21.70;19.60;;;;;;;19.20;100.00;98652.11;105227;1271;62160;-69
2022/07/30 06:00:45;;;;;;;21.40;19.30;;;;;;;19.21;100.00;98652.21;105194;1269;62699;-69
2022/07/30 06:03:11;;;;;;;21.50;19.60;;;;;;;19.21;100.00;98655.38;105188;1271;62117;-69
2022/07/30 06:05:37;;;;;;;20.20;18.50;;;;;;;19.23;100.00;98657.02;105149;1270;62157;-70
2022/07/30 06:08:03;;;;;;;20.60;18.70;;;;;;;19.25;100.00;98657.13;105188;1269;62148;-68
2022/07/30 06:10:30;;;;;;;20.70;18.90;;;;;;;19.28;100.00;98656.27;105232;1271;62249;-68
2022/07/30 06:12:56;;;;;;;20.50;18.30;;;;;;;19.31;100.00;98656.11;105179;1271;62215;-69
2022/07/30 06:15:22;;;;;;;20.20;18.30;;;;;;;19.36;100.00;98657.00;105228;1271;62112;-70
2022/07/30 06:17:48;;;;;;;21.30;19.20;;;;;;;19.41;100.00;98653.73;104947;1271;62251;-69
2022/07/30 06:20:15;;;;;;;21.60;19.50;;;;;;;19.47;100.00;98653.33;105210;1271;62140;-69
2022/07/30 06:22:42;;;;;;;20.30;18.30;;;;;;;19.53;100.00;98645.02;105176;1271;75161;-69
2022/07/30 06:25:09;;;;;;;19.50;17.80;;;;;;;19.57;100.00;98643.74;105194;1271;62156;-69
2022/07/30 06:27:36;;;;;;;20.30;18.50;;;;;;;19.60;100.00;98637.79;105161;1271;74526;-69
2022/07/30 06:30:04;;;;;;;18.50;16.80;;;;;;;19.65;100.00;98631.17;104922;1271;62118;-69
2022/07/30 06:32:30;;;;;;;18.80;16.90;;;;;;;19.69;100.00;98631.64;105198;1271;62078;-70
2022/07/30 06:34:56;;;;;;;18.20;16.50;;;;;;;19.73;100.00;98631.54;105185;1271;62653;-68
2022/07/30 06:37:21;;;;;;;19.70;17.50;;;;;;;19.80;100.00;98640.69;105030;1271;62142;-69
2022/07/30 06:39:48;;;;;;;19.00;17.10;;;;;;;19.89;100.00;98631.79;105191;1271;62170;-69
2022/07/30 06:42:14;;;;;;;20.40;18.50;;;;;;;19.96;100.00;98629.20;104933;1271;62181;-70
2022/07/30 06:44:39;;;;;;;18.30;16.60;;;;;;;20.00;100.00;98630.89;105230;1271;62177;-69
2022/07/30 06:47:05;;;;;;;18.20;16.50;;;;;;;20.05;100.00;98633.93;105225;1270;62186;-69
2022/07/30 06:49:32;;;;;;;18.90;17.30;;;;;;;20.11;100.00;98634.52;105220;1271;73206;-69
2022/07/30 06:51:59;;;;;;;19.20;17.50;;;;;;;20.20;100.00;98632.88;105201;1269;62156;-69
2022/07/30 06:54:24;;;;;;;18.20;16.60;;;;;;;20.25;100.00;98632.76;104956;1271;62139;-69
2022/07/30 06:56:50;;;;;;;18.00;16.50;;;;;;;20.35;100.00;98636.38;105204;1271;62315;-69
2022/07/30 06:59:16;;;;;;;17.80;16.30;;;;;;;20.46;100.00;98633.27;105164;1271;62206;-70
2022/07/30 07:01:42;;;;;;;18.70;17.10;;;;;;;20.57;100.00;98632.04;105190;1271;62007;-70
2022/07/30 07:04:08;;;;;;;18.00;16.50;;;;;;;20.74;100.00;98632.82;105242;1270;62183;-70
2022/07/30 07:06:34;;;;;;;19.20;17.50;;;;;;;20.88;100.00;98629.77;105187;1270;62190;-69
2022/07/30 07:09:01;;;;;;;17.10;15.70;;;;;;;21.00;100.00;98626.41;105061;1271;62156;-70
2022/07/30 07:11:27;;;;;;;17.50;15.90;;;;;;;21.08;100.00;98618.81;105235;1271;62174;-70
2022/07/30 07:13:53;;;;;;;17.40;15.90;;;;;;;21.10;100.00;98620.88;104898;1271;62147;-69
2022/07/30 07:16:20;;;;;;;16.70;15.20;;;;;;;21.18;100.00;98618.33;105223;1268;62367;-68
2022/07/30 07:18:47;;;;;;;16.00;14.60;;;;;;;21.28;100.00;98618.23;105248;1268;77243;-69
2022/07/30 07:21:16;;;;;;;16.70;15.20;;;;;;;21.41;100.00;98619.80;105381;1268;69524;-70
2022/07/30 07:23:41;;;;;;;16.30;14.90;;;;;;;21.61;100.00;98625.43;105246;1269;73287;-69
2022/07/30 07:26:07;;;;;;;16.30;14.90;;;;;;;21.85;100.00;98623.55;105191;1269;62087;-69
2022/07/30 07:28:33;;;;;;;15.00;13.80;;;;;;;22.16;100.00;98617.60;105206;1268;62212;-69
2022/07/30 07:30:59;;;;;;;14.00;12.80;;;;;;;22.53;100.00;98611.84;105264;1271;62581;-68
2022/07/30 07:33:25;;;;;;;14.50;13.20;;;;;;;22.89;100.00;98610.41;105197;1268;62164;-69
2022/07/30 07:35:53;;;;;;;13.00;11.70;;;;;;;23.14;100.00;98611.61;105018;1268;62366;-68
2022/07/30 07:38:19;;;;;;;13.60;12.50;;;;;;;23.28;100.00;98615.73;105204;1268;62061;-69
2022/07/30 07:40:46;;;;;;;13.10;12.00;;;;;;;23.44;100.00;98622.19;105343;1268;62008;-69
2022/07/30 07:43:13;;;;;;;13.90;12.60;;;;;;;23.68;100.00;98621.55;105262;1268;70395;-68
2022/07/30 07:45:44;;;;;;;12.30;11.20;;;;;;;23.81;100.00;98612.77;105158;1272;72705;-69
2022/07/30 07:48:11;;;;;;;13.30;12.10;;;;;;;23.92;100.00;98613.52;105199;1270;62190;-69
2022/07/30 07:50:37;;;;;;;11.00;10.20;;;;;;;23.95;100.00;98609.52;105201;1271;62043;-69
2022/07/30 07:53:04;;;;;;;12.70;11.40;;;;;;;24.04;100.00;98609.42;105206;1271;62170;-71
2022/07/30 07:55:30;;;;;;;11.20;10.30;;;;;;;24.28;100.00;98607.30;105237;1269;69593;-68
2022/07/30 07:57:56;;;;;;;10.60;9.60;;;;;;;24.47;100.00;98606.19;105220;1269;62638;-69
2022/07/30 08:00:21;;;;;;;10.10;9.30;;;;;;;24.53;100.00;98604.17;104954;1272;62423;-69
2022/07/30 08:02:47;;;;;;;9.30;8.50;;;;;;;24.51;100.00;98601.73;105210;1271;62076;-69
2022/07/30 08:05:13;;;;;;;8.70;8.10;;;;;;;24.46;100.00;98603.08;105251;1271;62097;-70
2022/07/30 08:07:42;;;;;;;8.60;7.70;;;;;;;24.40;100.00;98605.92;105257;1271;62164;-69
2022/07/30 08:10:10;;;;;;;8.40;7.80;;;;;;;24.31;100.00;98608.53;105033;1272;62324;-70
2022/07/30 08:12:36;;;;;;;8.40;7.60;;;;;;;24.17;100.00;98605.27;105234;1271;61956;-69
2022/07/30 08:15:03;;;;;;;8.80;8.00;;;;;;;24.02;100.00;98604.95;105250;1271;62299;-70
2022/07/30 08:17:28;;;;;;;8.60;7.80;;;;;;;23.92;100.00;98600.54;104976;1272;62140;-69
2022/07/30 08:19:59;;;;;;;9.20;8.10;;;;;;;23.79;100.00;98599.98;105246;1271;62126;-69
2022/07/30 08:22:26;;;;;;;8.70;7.90;;;;;;;23.61;100.00;98600.98;105015;1271;73257;-70
2022/07/30 08:24:52;;;;;;;8.90;8.20;;;;;;;23.49;100.00;98593.63;105248;1269;62185;-70
2022/07/30 08:27:17;;;;;;;9.80;8.90;;;;;;;23.50;100.00;98593.20;104958;1272;62217;-69
2022/07/30 08:29:44;;;;;;;8.60;8.00;;;;;;;23.49;100.00;98596.30;105233;1268;62200;-69
2022/07/30 08:32:10;;;;;;;9.30;8.70;;;;;;;23.49;100.00;98598.14;105233;1268;62162;-69
2022/07/30 08:34:36;;;;;;;9.80;9.10;;;;;;;23.53;100.00;98591.48;104950;1271;62366;-69
2022/07/30 08:37:01;;;;;;;9.70;8.90;;;;;;;23.70;100.00;98586.49;105258;1271;62603;-69
2022/07/30 08:39:27;;;;;;;9.60;8.80;;;;;;;23.86;100.00;98584.45;105314;1271;62091;-70
2022/07/30 08:41:54;;;;;;;9.00;8.20;;;;;;;24.08;100.00;98581.42;105318;1271;62171;-69
2022/07/30 08:44:20;;;;;;;10.10;9.20;;;;;;;24.33;100.00;98575.55;105241;1270;74263;-69
2022/07/30 08:46:49;;;;;;;8.20;7.50;;;;;;;24.58;100.00;98572.45;105283;1271;62163;-69
2022/07/30 08:49:16;;;;;;;7.60;7.00;;;;;;;24.81;100.00;98570.50;105453;1271;62056;-70
2022/07/30 08:51:43;;;;;;;8.10;7.30;;;;;;;24.88;100.00;98565.48;105318;1271;76697;-69
2022/07/30 08:54:09;;;;;;;10.60;6.80;;;;;;;25.00;100.00;98562.33;105381;1269;62100;-69
2022/07/30 08:56:36;;;;;;;7.50;6.80;;;;;;;25.21;100.00;98558.09;105244;1271;62184;-69
2022/07/30 08:59:03;;;;;;;7.50;6.90;;;;;;;25.41;100.00;98559.20;105338;1271;62101;-68
2022/07/30 09:01:28;;;;;;;6.70;6.10;;;;;;;25.66;100.00;98558.31;105322;1271;62176;-68
2022/07/30 09:03:54;;;;;;;6.90;6.10;;;;;;;25.97;100.00;98557.94;105257;1271;62188;-69
2022/07/30 09:06:20;;;;;;;5.80;5.30;;;;;;;26.27;100.00;98558.17;105217;1271;62174;-69
2022/07/30 09:08:46;;;;;;;6.20;5.70;;;;;;;26.53;100.00;98551.21;105231;1271;62216;-70
2022/07/30 09:11:12;;;;;;;6.70;6.10;;;;;;;26.70;100.00;98547.07;105222;1271;62125;-69
2022/07/30 09:13:41;;;;;;;6.40;5.90;;;;;;;26.84;100.00;98548.29;105226;1271;62091;-69
2022/07/30 09:16:18;;;;;;;6.80;6.20;;;;;;;26.95;100.00;98545.41;105251;1268;62164;-69
2022/07/30 09:18:44;;;;;;;6.90;6.30;;;;;;;26.94;100.00;98547.95;105124;1271;69095;-69
2022/07/30 09:21:14;;;;;;;7.50;6.30;;;;;;;26.91;100.00;98546.95;105315;1271;62673;-70
2022/07/30 09:23:40;;;;;;;7.10;6.60;;;;;;;27.04;100.00;98546.84;105211;1269;62544;-69
2022/07/30 09:26:06;;;;;;;6.50;5.70;;;;;;;27.15;100.00;98546.20;104991;1271;62260;-69
2022/07/30 09:28:33;;;;;;;5.60;5.30;;;;;;;27.27;100.00;98545.91;105279;1270;62162;-69
2022/07/30 09:30:59;;;;;;;5.70;5.30;;;;;;;27.32;100.00;98543.39;105281;1270;62199;-68
2022/07/30 09:33:39;;;;;;;6.00;5.60;;;;;;;27.43;100.00;98535.22;105246;1271;62301;-70
2022/07/30 09:36:08;;;;;;;6.20;5.70;;;;;;;27.68;100.00;98534.34;105408;1270;62209;-70
2022/07/30 09:39:00;;;;;;;7.00;6.40;;;;;;;27.83;100.00;98535.74;105307;1271;62096;-69
2022/07/30 09:41:40;;;;;;;5.70;5.30;;;;;;;27.94;100.00;98533.70;104823;1277;74577;-70
2022/07/30 09:44:06;;;;;;;6.00;5.60;;;;;;;28.03;100.00;98530.14;104804;1276;70710;-69
2022/07/30 09:46:46;;;;;;;6.20;5.70;;;;;;;28.11;100.00;98526.88;104105;1277;957757;-69
2022/07/30 09:49:20;;;;;;;5.90;5.40;;;;;;;28.09;100.00;98526.85;104841;1276;62119;-70
2022/07/30 09:51:47;;;;;;;6.10;5.60;;;;;;;27.84;100.00;98520.95;104825;1276;62078;-70
2022/07/30 09:54:13;;;;;;;6.00;5.00;;;;;;;27.73;100.00;98519.48;104870;1276;76125;-69
2022/07/30 09:56:39;;;;;;;6.00;5.50;;;;;;;27.78;100.00;98517.61;104820;1277;62557;-70
2022/07/30 09:59:06;;;;;;;5.80;5.30;;;;;;;27.87;100.00;98512.96;104799;1277;62344;-69
2022/07/30 10:01:53;;;;;;;5.80;5.30;;;;;;;27.96;100.00;98506.92;104755;1277;62081;-70
2022/07/30 10:04:27;;;;;;;5.30;4.90;;;;;;;28.08;100.00;98503.13;104834;1277;62164;-69
2022/07/30 10:06:53;;;;;;;5.50;5.00;;;;;;;28.08;100.00;98499.16;104785;1277;75604;-69
2022/07/30 10:09:30;;;;;;;5.90;5.50;;;;;;;27.99;100.00;98496.48;104827;1277;69618;-70
2022/07/30 10:11:59;;;;;;;5.70;5.20;;;;;;;27.92;100.00;98492.73;104928;1277;74402;-69
2022/07/30 10:14:28;;;;;;;5.90;5.40;;;;;;;27.99;100.00;98493.48;104865;1277;62223;-70
2022/07/30 10:16:55;;;;;;;6.40;5.80;;;;;;;28.09;100.00;98491.58;104915;1277;62175;-68
2022/07/30 10:19:22;;;;;;;6.60;6.10;;;;;;;28.10;100.00;98492.45;105139;1271;76020;-69
2022/07/30 10:21:49;;;;;;;6.50;5.90;;;;;;;28.06;100.00;98492.48;105227;1271;70262;-69
2022/07/30 10:24:17;;;;;;;6.80;6.20;;;;;;;28.24;100.00;98493.42;104939;1272;73683;-69
2022/07/30 10:26:46;;;;;;;7.10;6.50;;;;;;;28.50;100.00;98498.44;105280;1271;62134;-68
2022/07/30 10:29:15;;;;;;;7.60;6.20;;;;;;;28.90;100.00;98493.79;105259;1271;62103;-70
2022/07/30 10:31:41;;;;;;;6.80;6.20;;;;;;;29.20;100.00;98496.04;105068;1272;74979;-70
2022/07/30 10:34:07;;;;;;;6.50;5.90;;;;;;;29.28;100.00;98502.45;105050;1271;70348;-70
2022/07/30 10:36:34;;;;;;;6.00;5.50;;;;;;;29.33;100.00;98506.89;105209;1271;62072;-69
2022/07/30 10:39:01;;;;;;;5.40;4.90;;;;;;;29.30;100.00;98509.04;105246;1271;62117;-69
2022/07/30 10:41:42;;;;;;;6.30;5.80;;;;;;;29.30;100.00;98507.98;105279;1271;62164;-70
2022/07/30 10:44:22;;;;;;;5.30;4.70;;;;;;;29.30;100.00;98504.65;105238;1271;77082;-70
2022/07/30 10:47:10;;;;;;;4.80;4.50;;;;;;;29.28;100.00;98501.40;105244;1271;68933;-70
2022/07/30 10:49:36;;;;;;;6.10;5.30;;;;;;;29.30;100.00;98499.55;105055;1272;73218;-71
2022/07/30 10:52:01;;;;;;;5.10;4.70;;;;;;;29.33;100.00;98498.40;105221;1271;62689;-70
2022/07/30 10:54:36;;;;;;;5.80;5.40;;;;;;;29.28;100.00;98503.59;105263;1271;62186;-70
2022/07/30 10:57:05;;;;;;;5.60;5.10;;;;;;;29.10;100.00;98504.84;105388;1270;76237;-69
2022/07/30 10:59:49;;;;;;;5.50;5.10;;;;;;;28.78;100.00;98503.17;105387;1268;70300;-70
2022/07/30 11:02:16;;;;;;;5.10;4.70;;;;;;;28.51;100.00;98501.51;105262;1271;72324;-68
2022/07/30 11:04:42;;;;;;;6.70;6.10;;;;;;;28.24;100.00;98506.27;105400;1268;62157;-69
2022/07/30 11:07:20;;;;;;;6.10;5.60;;;;;;;27.87;100.00;98510.29;105233;1271;63659;-69
2022/07/30 11:09:47;;;;;;;6.00;5.40;;;;;;;27.45;100.00;98512.16;105207;1271;77095;-70
2022/07/30 11:12:13;;;;;;;7.00;6.20;;;;;;;27.03;100.00;98522.11;105209;1268;70237;-70
2022/07/30 11:14:45;;;;;;;6.30;5.30;;;;;;;26.58;100.00;98524.31;105230;1271;62174;-69